sensor_id;sensor_type;location;lat;lon;timestamp;P1;durP1;ratioP1;P2;durP2;ratioP2
21170;SDS011;10743;52.160;20.910;2023-07-24T00:01:17;232.23;;;67.28;;
21170;SDS011;10743;52.160;20.910;2023-07-24T00:03:45;222.32;;;65.03;;
21170;SDS011;10743;52.160;20.910;2023-07-24T00:06:12;228.43;;;65.78;;
21170;SDS011;10743;52.160;20.910;2023-07-24T00:08:39;225.45;;;66.25;;
21170;SDS011;10743;52.160;20.910;2023-07-24T00:11:09;225.73;;;65.22;;
21170;SDS011;10743;52.160;20.910;2023-07-24T00:13:36;225.75;;;65.82;;
21170;SDS011;10743;52.160;20.910;2023-07-24T00:16:07;233.18;;;66.65;;
21170;SDS011;10743;52.160;20.910;2023-07-24T00:18:35;233.73;;;66.88;;
21170;SDS011;10743;52.160;20.910;2023-07-24T00:21:02;228.10;;;66.57;;
21170;SDS011;10743;52.160;20.910;2023-07-24T00:23:29;229.82;;;66.93;;
21170;SDS011;10743;52.160;20.910;2023-07-24T00:25:56;229.82;;;67.32;;
21170;SDS011;10743;52.160;20.910;2023-07-24T00:28:23;232.70;;;67.55;;
21170;SDS011;10743;52.160;20.910;2023-07-24T00:30:51;230.88;;;66.70;;
21170;SDS011;10743;52.160;20.910;2023-07-24T00:33:18;230.43;;;66.63;;
21170;SDS011;10743;52.160;20.910;2023-07-24T00:35:46;222.88;;;65.95;;
21170;SDS011;10743;52.160;20.910;2023-07-24T00:38:13;229.63;;;67.50;;
21170;SDS011;10743;52.160;20.910;2023-07-24T00:40:40;229.02;;;66.35;;
21170;SDS011;10743;52.160;20.910;2023-07-24T00:43:07;230.20;;;66.65;;
21170;SDS011;10743;52.160;20.910;2023-07-24T00:45:34;224.23;;;65.85;;
21170;SDS011;10743;52.160;20.910;2023-07-24T00:48:02;231.02;;;66.65;;
21170;SDS011;10743;52.160;20.910;2023-07-24T00:50:30;227.38;;;66.38;;
21170;SDS011;10743;52.160;20.910;2023-07-24T00:52:58;229.20;;;66.05;;
21170;SDS011;10743;52.160;20.910;2023-07-24T00:55:25;227.80;;;66.68;;
21170;SDS011;10743;52.160;20.910;2023-07-24T00:57:52;226.35;;;66.18;;
21170;SDS011;10743;52.160;20.910;2023-07-24T01:00:20;229.98;;;66.60;;
21170;SDS011;10743;52.160;20.910;2023-07-24T01:02:48;226.50;;;66.30;;
21170;SDS011;10743;52.160;20.910;2023-07-24T01:05:16;227.68;;;66.18;;
21170;SDS011;10743;52.160;20.910;2023-07-24T01:07:44;228.02;;;66.57;;
21170;SDS011;10743;52.160;20.910;2023-07-24T01:10:11;227.90;;;65.97;;
21170;SDS011;10743;52.160;20.910;2023-07-24T01:12:39;226.48;;;66.00;;
21170;SDS011;10743;52.160;20.910;2023-07-24T01:15:18;230.82;;;65.93;;
21170;SDS011;10743;52.160;20.910;2023-07-24T01:17:56;225.63;;;65.75;;
21170;SDS011;10743;52.160;20.910;2023-07-24T01:20:28;228.63;;;65.68;;
21170;SDS011;10743;52.160;20.910;2023-07-24T01:25:58;228.95;;;66.10;;
21170;SDS011;10743;52.160;20.910;2023-07-24T01:28:28;229.30;;;66.07;;
21170;SDS011;10743;52.160;20.910;2023-07-24T01:30:56;229.60;;;66.13;;
21170;SDS011;10743;52.160;20.910;2023-07-24T01:33:24;229.50;;;66.95;;
21170;SDS011;10743;52.160;20.910;2023-07-24T01:35:57;224.65;;;65.57;;
21170;SDS011;10743;52.160;20.910;2023-07-24T01:38:26;241.27;;;80.72;;
21170;SDS011;10743;52.160;20.910;2023-07-24T01:40:54;227.55;;;66.40;;
21170;SDS011;10743;52.160;20.910;2023-07-24T01:43:24;250.02;;;86.93;;
21170;SDS011;10743;52.160;20.910;2023-07-24T01:45:55;225.93;;;66.43;;
21170;SDS011;10743;52.160;20.910;2023-07-24T01:48:22;226.07;;;65.47;;
21170;SDS011;10743;52.160;20.910;2023-07-24T01:50:49;223.73;;;65.40;;
21170;SDS011;10743;52.160;20.910;2023-07-24T01:53:16;228.80;;;65.93;;
21170;SDS011;10743;52.160;20.910;2023-07-24T01:55:43;221.23;;;63.95;;
21170;SDS011;10743;52.160;20.910;2023-07-24T01:58:11;227.00;;;65.90;;
21170;SDS011;10743;52.160;20.910;2023-07-24T02:00:38;226.43;;;65.53;;
21170;SDS011;10743;52.160;20.910;2023-07-24T02:03:05;226.90;;;65.53;;
21170;SDS011;10743;52.160;20.910;2023-07-24T02:05:32;228.65;;;65.70;;
21170;SDS011;10743;52.160;20.910;2023-07-24T02:08:01;234.48;;;65.78;;
21170;SDS011;10743;52.160;20.910;2023-07-24T02:10:28;228.52;;;65.68;;
21170;SDS011;10743;52.160;20.910;2023-07-24T02:12:55;228.05;;;65.95;;
21170;SDS011;10743;52.160;20.910;2023-07-24T02:15:22;225.05;;;65.60;;
21170;SDS011;10743;52.160;20.910;2023-07-24T02:17:49;225.65;;;65.30;;
21170;SDS011;10743;52.160;20.910;2023-07-24T02:20:16;225.07;;;65.80;;
21170;SDS011;10743;52.160;20.910;2023-07-24T02:22:43;223.95;;;65.35;;
21170;SDS011;10743;52.160;20.910;2023-07-24T02:25:10;227.07;;;65.53;;
21170;SDS011;10743;52.160;20.910;2023-07-24T02:27:37;226.55;;;65.55;;
21170;SDS011;10743;52.160;20.910;2023-07-24T02:30:04;224.52;;;64.70;;
21170;SDS011;10743;52.160;20.910;2023-07-24T02:32:34;225.95;;;65.10;;
21170;SDS011;10743;52.160;20.910;2023-07-24T02:35:01;227.27;;;64.95;;
21170;SDS011;10743;52.160;20.910;2023-07-24T02:37:28;227.15;;;65.60;;
21170;SDS011;10743;52.160;20.910;2023-07-24T02:39:55;227.43;;;65.22;;
21170;SDS011;10743;52.160;20.910;2023-07-24T02:42:22;224.27;;;64.53;;
21170;SDS011;10743;52.160;20.910;2023-07-24T02:44:49;226.75;;;64.78;;
21170;SDS011;10743;52.160;20.910;2023-07-24T02:47:17;227.27;;;65.25;;
21170;SDS011;10743;52.160;20.910;2023-07-24T02:49:44;224.88;;;64.53;;
21170;SDS011;10743;52.160;20.910;2023-07-24T02:52:11;227.77;;;65.15;;
21170;SDS011;10743;52.160;20.910;2023-07-24T02:54:38;224.18;;;64.10;;
21170;SDS011;10743;52.160;20.910;2023-07-24T02:57:05;224.85;;;64.88;;
21170;SDS011;10743;52.160;20.910;2023-07-24T02:59:32;227.43;;;64.68;;
21170;SDS011;10743;52.160;20.910;2023-07-24T03:02:01;223.43;;;64.03;;
21170;SDS011;10743;52.160;20.910;2023-07-24T03:04:28;236.57;;;77.53;;
21170;SDS011;10743;52.160;20.910;2023-07-24T03:06:55;224.70;;;66.78;;
21170;SDS011;10743;52.160;20.910;2023-07-24T03:09:22;231.35;;;72.28;;
21170;SDS011;10743;52.160;20.910;2023-07-24T03:11:49;244.02;;;84.93;;
21170;SDS011;10743;52.160;20.910;2023-07-24T03:14:16;231.02;;;64.53;;
21170;SDS011;10743;52.160;20.910;2023-07-24T03:16:43;225.48;;;64.43;;
21170;SDS011;10743;52.160;20.910;2023-07-24T03:19:10;224.48;;;66.90;;
21170;SDS011;10743;52.160;20.910;2023-07-24T03:21:37;225.73;;;64.50;;
21170;SDS011;10743;52.160;20.910;2023-07-24T03:24:05;231.60;;;65.15;;
21170;SDS011;10743;52.160;20.910;2023-07-24T03:26:32;225.45;;;66.53;;
21170;SDS011;10743;52.160;20.910;2023-07-24T03:29:00;224.80;;;64.07;;
21170;SDS011;10743;52.160;20.910;2023-07-24T03:31:27;221.80;;;64.25;;
21170;SDS011;10743;52.160;20.910;2023-07-24T03:33:54;232.23;;;65.65;;
21170;SDS011;10743;52.160;20.910;2023-07-24T03:36:21;221.65;;;63.83;;
21170;SDS011;10743;52.160;20.910;2023-07-24T03:38:50;222.98;;;64.55;;
21170;SDS011;10743;52.160;20.910;2023-07-24T03:41:17;221.60;;;63.47;;
21170;SDS011;10743;52.160;20.910;2023-07-24T03:43:44;223.98;;;64.53;;
21170;SDS011;10743;52.160;20.910;2023-07-24T03:46:13;224.10;;;64.78;;
21170;SDS011;10743;52.160;20.910;2023-07-24T03:48:40;222.75;;;63.45;;
21170;SDS011;10743;52.160;20.910;2023-07-24T03:51:07;226.02;;;64.10;;
21170;SDS011;10743;52.160;20.910;2023-07-24T03:53:35;223.65;;;64.28;;
21170;SDS011;10743;52.160;20.910;2023-07-24T03:56:02;220.70;;;63.65;;
21170;SDS011;10743;52.160;20.910;2023-07-24T03:58:29;229.15;;;63.95;;
21170;SDS011;10743;52.160;20.910;2023-07-24T04:00:56;223.80;;;64.00;;
21170;SDS011;10743;52.160;20.910;2023-07-24T04:03:23;225.45;;;63.55;;
21170;SDS011;10743;52.160;20.910;2023-07-24T04:05:51;227.10;;;63.95;;
21170;SDS011;10743;52.160;20.910;2023-07-24T04:08:18;225.23;;;63.70;;
21170;SDS011;10743;52.160;20.910;2023-07-24T04:10:45;219.95;;;62.75;;
21170;SDS011;10743;52.160;20.910;2023-07-24T04:13:12;221.07;;;63.42;;
21170;SDS011;10743;52.160;20.910;2023-07-24T04:15:39;221.68;;;64.22;;
21170;SDS011;10743;52.160;20.910;2023-07-24T04:18:06;226.35;;;64.15;;
21170;SDS011;10743;52.160;20.910;2023-07-24T04:20:33;222.07;;;63.35;;
21170;SDS011;10743;52.160;20.910;2023-07-24T04:23:00;226.30;;;64.93;;
21170;SDS011;10743;52.160;20.910;2023-07-24T04:25:27;227.90;;;64.00;;
21170;SDS011;10743;52.160;20.910;2023-07-24T04:27:54;226.02;;;63.67;;
21170;SDS011;10743;52.160;20.910;2023-07-24T04:30:21;221.98;;;63.65;;
21170;SDS011;10743;52.160;20.910;2023-07-24T04:32:48;228.32;;;64.22;;
21170;SDS011;10743;52.160;20.910;2023-07-24T04:35:16;225.27;;;63.75;;
21170;SDS011;10743;52.160;20.910;2023-07-24T04:37:43;223.40;;;64.03;;
21170;SDS011;10743;52.160;20.910;2023-07-24T04:40:10;226.18;;;64.57;;
21170;SDS011;10743;52.160;20.910;2023-07-24T04:42:38;217.85;;;62.75;;
21170;SDS011;10743;52.160;20.910;2023-07-24T04:45:05;222.35;;;63.58;;
21170;SDS011;10743;52.160;20.910;2023-07-24T04:47:33;222.10;;;63.60;;
21170;SDS011;10743;52.160;20.910;2023-07-24T04:50:00;223.75;;;63.95;;
21170;SDS011;10743;52.160;20.910;2023-07-24T04:52:27;225.07;;;63.40;;
21170;SDS011;10743;52.160;20.910;2023-07-24T04:54:54;225.02;;;64.45;;
21170;SDS011;10743;52.160;20.910;2023-07-24T04:57:21;226.13;;;65.72;;
21170;SDS011;10743;52.160;20.910;2023-07-24T04:59:48;227.23;;;65.10;;
21170;SDS011;10743;52.160;20.910;2023-07-24T05:02:15;228.65;;;64.63;;
21170;SDS011;10743;52.160;20.910;2023-07-24T05:04:43;224.23;;;63.97;;
21170;SDS011;10743;52.160;20.910;2023-07-24T05:07:10;228.23;;;64.03;;
21170;SDS011;10743;52.160;20.910;2023-07-24T05:09:37;226.00;;;64.13;;
21170;SDS011;10743;52.160;20.910;2023-07-24T05:12:04;228.10;;;65.30;;
21170;SDS011;10743;52.160;20.910;2023-07-24T05:14:32;235.23;;;71.28;;
21170;SDS011;10743;52.160;20.910;2023-07-24T05:16:59;223.77;;;64.32;;
21170;SDS011;10743;52.160;20.910;2023-07-24T05:19:26;226.40;;;64.85;;
21170;SDS011;10743;52.160;20.910;2023-07-24T05:21:53;222.32;;;64.47;;
21170;SDS011;10743;52.160;20.910;2023-07-24T05:24:20;224.43;;;64.53;;
21170;SDS011;10743;52.160;20.910;2023-07-24T05:26:47;227.82;;;65.25;;
21170;SDS011;10743;52.160;20.910;2023-07-24T05:29:14;223.68;;;64.32;;
21170;SDS011;10743;52.160;20.910;2023-07-24T05:31:41;230.00;;;65.78;;
21170;SDS011;10743;52.160;20.910;2023-07-24T05:34:09;228.10;;;65.18;;
21170;SDS011;10743;52.160;20.910;2023-07-24T05:36:36;228.90;;;65.78;;
21170;SDS011;10743;52.160;20.910;2023-07-24T05:39:03;228.23;;;64.88;;
21170;SDS011;10743;52.160;20.910;2023-07-24T05:41:30;226.68;;;65.15;;
21170;SDS011;10743;52.160;20.910;2023-07-24T05:43:57;224.40;;;65.00;;
21170;SDS011;10743;52.160;20.910;2023-07-24T05:46:24;228.20;;;65.53;;
21170;SDS011;10743;52.160;20.910;2023-07-24T05:48:51;226.15;;;64.75;;
21170;SDS011;10743;52.160;20.910;2023-07-24T05:51:19;226.75;;;65.15;;
21170;SDS011;10743;52.160;20.910;2023-07-24T05:53:46;231.50;;;65.47;;
21170;SDS011;10743;52.160;20.910;2023-07-24T05:56:13;225.93;;;64.85;;
21170;SDS011;10743;52.160;20.910;2023-07-24T05:58:40;231.55;;;65.30;;
21170;SDS011;10743;52.160;20.910;2023-07-24T06:01:07;226.73;;;64.85;;
21170;SDS011;10743;52.160;20.910;2023-07-24T06:03:36;227.25;;;65.03;;
21170;SDS011;10743;52.160;20.910;2023-07-24T06:06:05;229.60;;;65.28;;
21170;SDS011;10743;52.160;20.910;2023-07-24T06:08:32;224.57;;;64.32;;
21170;SDS011;10743;52.160;20.910;2023-07-24T06:10:59;223.02;;;64.05;;
21170;SDS011;10743;52.160;20.910;2023-07-24T06:13:26;222.02;;;63.85;;
21170;SDS011;10743;52.160;20.910;2023-07-24T06:15:53;225.20;;;64.38;;
21170;SDS011;10743;52.160;20.910;2023-07-24T06:18:20;223.45;;;64.38;;
21170;SDS011;10743;52.160;20.910;2023-07-24T06:20:47;225.70;;;64.45;;
21170;SDS011;10743;52.160;20.910;2023-07-24T06:23:19;226.15;;;65.15;;
21170;SDS011;10743;52.160;20.910;2023-07-24T06:25:46;228.10;;;65.28;;
21170;SDS011;10743;52.160;20.910;2023-07-24T06:28:13;227.80;;;65.80;;
21170;SDS011;10743;52.160;20.910;2023-07-24T06:30:40;227.75;;;65.20;;
21170;SDS011;10743;52.160;20.910;2023-07-24T06:33:07;228.05;;;65.13;;
21170;SDS011;10743;52.160;20.910;2023-07-24T06:35:34;228.40;;;65.28;;
21170;SDS011;10743;52.160;20.910;2023-07-24T06:38:02;230.02;;;65.03;;
21170;SDS011;10743;52.160;20.910;2023-07-24T06:40:29;229.52;;;65.03;;
21170;SDS011;10743;52.160;20.910;2023-07-24T06:42:56;227.18;;;65.03;;
21170;SDS011;10743;52.160;20.910;2023-07-24T06:45:23;230.15;;;65.03;;
21170;SDS011;10743;52.160;20.910;2023-07-24T06:47:50;227.00;;;64.60;;
21170;SDS011;10743;52.160;20.910;2023-07-24T06:50:18;226.18;;;64.72;;
21170;SDS011;10743;52.160;20.910;2023-07-24T06:52:45;229.45;;;65.00;;
21170;SDS011;10743;52.160;20.910;2023-07-24T06:55:12;240.02;;;80.55;;
21170;SDS011;10743;52.160;20.910;2023-07-24T06:57:39;234.18;;;73.72;;
21170;SDS011;10743;52.160;20.910;2023-07-24T07:00:06;227.40;;;64.75;;
21170;SDS011;10743;52.160;20.910;2023-07-24T07:02:38;234.35;;;65.97;;
21170;SDS011;10743;52.160;20.910;2023-07-24T07:05:05;233.93;;;72.38;;
21170;SDS011;10743;52.160;20.910;2023-07-24T07:07:32;223.80;;;64.97;;
21170;SDS011;10743;52.160;20.910;2023-07-24T07:09:59;238.65;;;66.45;;
21170;SDS011;10743;52.160;20.910;2023-07-24T07:12:27;225.80;;;64.63;;
21170;SDS011;10743;52.160;20.910;2023-07-24T07:14:54;227.00;;;65.22;;
21170;SDS011;10743;52.160;20.910;2023-07-24T07:17:21;269.92;;;113.78;;
21170;SDS011;10743;52.160;20.910;2023-07-24T07:19:49;233.20;;;67.00;;
21170;SDS011;10743;52.160;20.910;2023-07-24T07:22:16;228.48;;;65.57;;
21170;SDS011;10743;52.160;20.910;2023-07-24T07:24:43;224.10;;;66.25;;
21170;SDS011;10743;52.160;20.910;2023-07-24T07:27:12;223.27;;;65.43;;
21170;SDS011;10743;52.160;20.910;2023-07-24T07:29:43;226.30;;;64.88;;
21170;SDS011;10743;52.160;20.910;2023-07-24T07:32:10;222.88;;;66.35;;
21170;SDS011;10743;52.160;20.910;2023-07-24T07:34:37;260.90;;;105.82;;
21170;SDS011;10743;52.160;20.910;2023-07-24T07:37:05;238.35;;;67.38;;
21170;SDS011;10743;52.160;20.910;2023-07-24T07:39:33;232.95;;;66.63;;
21170;SDS011;10743;52.160;20.910;2023-07-24T07:42:00;233.55;;;67.20;;
21170;SDS011;10743;52.160;20.910;2023-07-24T07:44:33;229.98;;;66.97;;
21170;SDS011;10743;52.160;20.910;2023-07-24T07:47:00;225.10;;;67.22;;
21170;SDS011;10743;52.160;20.910;2023-07-24T07:49:27;240.50;;;68.75;;
21170;SDS011;10743;52.160;20.910;2023-07-24T07:51:56;224.20;;;67.22;;
21170;SDS011;10743;52.160;20.910;2023-07-24T07:54:23;226.95;;;67.57;;
21170;SDS011;10743;52.160;20.910;2023-07-24T07:56:50;221.57;;;67.78;;
21170;SDS011;10743;52.160;20.910;2023-07-24T07:59:19;217.05;;;66.82;;
21170;SDS011;10743;52.160;20.910;2023-07-24T08:01:46;218.20;;;66.35;;
21170;SDS011;10743;52.160;20.910;2023-07-24T08:04:13;216.88;;;67.82;;
21170;SDS011;10743;52.160;20.910;2023-07-24T08:06:40;210.23;;;65.93;;
21170;SDS011;10743;52.160;20.910;2023-07-24T08:09:07;207.93;;;67.20;;
21170;SDS011;10743;52.160;20.910;2023-07-24T08:11:34;214.95;;;67.68;;
21170;SDS011;10743;52.160;20.910;2023-07-24T08:14:01;203.57;;;65.57;;
21170;SDS011;10743;52.160;20.910;2023-07-24T08:16:28;196.90;;;66.18;;
21170;SDS011;10743;52.160;20.910;2023-07-24T08:18:56;199.10;;;65.95;;
21170;SDS011;10743;52.160;20.910;2023-07-24T08:21:23;194.00;;;65.78;;
21170;SDS011;10743;52.160;20.910;2023-07-24T08:23:50;184.18;;;65.65;;
21170;SDS011;10743;52.160;20.910;2023-07-24T08:26:18;185.43;;;66.65;;
21170;SDS011;10743;52.160;20.910;2023-07-24T08:28:45;178.88;;;65.57;;
21170;SDS011;10743;52.160;20.910;2023-07-24T08:31:12;178.15;;;65.50;;
21170;SDS011;10743;52.160;20.910;2023-07-24T08:33:39;180.95;;;66.35;;
21170;SDS011;10743;52.160;20.910;2023-07-24T08:36:06;177.95;;;66.47;;
21170;SDS011;10743;52.160;20.910;2023-07-24T08:38:35;160.32;;;64.53;;
21170;SDS011;10743;52.160;20.910;2023-07-24T08:41:11;158.23;;;64.07;;
21170;SDS011;10743;52.160;20.910;2023-07-24T08:43:41;160.30;;;63.90;;
21170;SDS011;10743;52.160;20.910;2023-07-24T08:46:10;154.73;;;63.60;;
21170;SDS011;10743;52.160;20.910;2023-07-24T08:48:41;146.68;;;62.65;;
21170;SDS011;10743;52.160;20.910;2023-07-24T08:51:12;150.93;;;63.97;;
21170;SDS011;10743;52.160;20.910;2023-07-24T08:53:43;149.00;;;63.33;;
21170;SDS011;10743;52.160;20.910;2023-07-24T08:56:10;183.02;;;97.60;;
21170;SDS011;10743;52.160;20.910;2023-07-24T08:58:38;152.48;;;63.90;;
21170;SDS011;10743;52.160;20.910;2023-07-24T09:01:06;160.23;;;72.88;;
21170;SDS011;10743;52.160;20.910;2023-07-24T09:03:35;147.60;;;65.70;;
21170;SDS011;10743;52.160;20.910;2023-07-24T09:06:03;146.05;;;63.15;;
21170;SDS011;10743;52.160;20.910;2023-07-24T09:08:34;144.32;;;63.05;;
21170;SDS011;10743;52.160;20.910;2023-07-24T09:11:05;140.88;;;62.75;;
21170;SDS011;10743;52.160;20.910;2023-07-24T09:13:33;141.35;;;62.78;;
21170;SDS011;10743;52.160;20.910;2023-07-24T09:16:03;136.43;;;61.00;;
21170;SDS011;10743;52.160;20.910;2023-07-24T09:18:38;130.63;;;60.78;;
21170;SDS011;10743;52.160;20.910;2023-07-24T09:21:09;118.43;;;59.28;;
21170;SDS011;10743;52.160;20.910;2023-07-24T09:23:39;118.85;;;58.00;;
21170;SDS011;10743;52.160;20.910;2023-07-24T09:26:10;118.75;;;59.22;;
21170;SDS011;10743;52.160;20.910;2023-07-24T09:28:37;120.60;;;59.28;;
21170;SDS011;10743;52.160;20.910;2023-07-24T09:31:04;113.38;;;57.53;;
21170;SDS011;10743;52.160;20.910;2023-07-24T09:33:35;107.45;;;56.33;;
21170;SDS011;10743;52.160;20.910;2023-07-24T09:36:07;107.78;;;56.35;;
21170;SDS011;10743;52.160;20.910;2023-07-24T09:38:36;106.90;;;55.75;;
21170;SDS011;10743;52.160;20.910;2023-07-24T09:41:03;101.25;;;55.13;;
21170;SDS011;10743;52.160;20.910;2023-07-24T09:43:32;88.63;;;52.55;;
21170;SDS011;10743;52.160;20.910;2023-07-24T09:46:07;96.70;;;53.67;;
21170;SDS011;10743;52.160;20.910;2023-07-24T09:48:37;94.32;;;53.63;;
21170;SDS011;10743;52.160;20.910;2023-07-24T09:51:09;98.75;;;54.70;;
21170;SDS011;10743;52.160;20.910;2023-07-24T09:53:51;97.43;;;54.20;;
21170;SDS011;10743;52.160;20.910;2023-07-24T09:56:22;101.40;;;54.40;;
21170;SDS011;10743;52.160;20.910;2023-07-24T09:59:11;88.95;;;52.17;;
21170;SDS011;10743;52.160;20.910;2023-07-24T10:01:39;95.32;;;53.28;;
21170;SDS011;10743;52.160;20.910;2023-07-24T10:04:07;102.80;;;54.58;;
21170;SDS011;10743;52.160;20.910;2023-07-24T10:06:34;99.28;;;55.20;;
21170;SDS011;10743;52.160;20.910;2023-07-24T10:09:03;94.25;;;54.42;;
21170;SDS011;10743;52.160;20.910;2023-07-24T10:11:30;95.70;;;54.28;;
21170;SDS011;10743;52.160;20.910;2023-07-24T10:13:58;99.57;;;58.03;;
21170;SDS011;10743;52.160;20.910;2023-07-24T10:16:26;115.60;;;76.82;;
21170;SDS011;10743;52.160;20.910;2023-07-24T10:18:53;93.05;;;53.60;;
21170;SDS011;10743;52.160;20.910;2023-07-24T10:21:26;97.15;;;54.85;;
21170;SDS011;10743;52.160;20.910;2023-07-24T10:23:55;91.03;;;53.92;;
21170;SDS011;10743;52.160;20.910;2023-07-24T10:26:26;87.28;;;53.00;;
21170;SDS011;10743;52.160;20.910;2023-07-24T10:28:53;93.55;;;56.28;;
21170;SDS011;10743;52.160;20.910;2023-07-24T10:31:22;105.22;;;57.13;;
21170;SDS011;10743;52.160;20.910;2023-07-24T10:33:54;91.55;;;54.05;;
21170;SDS011;10743;52.160;20.910;2023-07-24T10:36:23;94.88;;;53.95;;
21170;SDS011;10743;52.160;20.910;2023-07-24T10:38:54;98.82;;;56.03;;
21170;SDS011;10743;52.160;20.910;2023-07-24T10:41:23;96.50;;;54.42;;
21170;SDS011;10743;52.160;20.910;2023-07-24T10:44:01;91.93;;;54.55;;
21170;SDS011;10743;52.160;20.910;2023-07-24T10:46:36;87.85;;;54.05;;
21170;SDS011;10743;52.160;20.910;2023-07-24T10:49:06;89.60;;;53.53;;
21170;SDS011;10743;52.160;20.910;2023-07-24T10:51:35;98.47;;;55.10;;
21170;SDS011;10743;52.160;20.910;2023-07-24T10:54:04;93.68;;;55.30;;
21170;SDS011;10743;52.160;20.910;2023-07-24T10:56:32;92.97;;;54.67;;
21170;SDS011;10743;52.160;20.910;2023-07-24T10:59:02;92.85;;;54.75;;
21170;SDS011;10743;52.160;20.910;2023-07-24T11:01:31;87.38;;;53.88;;
21170;SDS011;10743;52.160;20.910;2023-07-24T11:04:00;76.95;;;49.75;;
21170;SDS011;10743;52.160;20.910;2023-07-24T11:06:28;72.40;;;50.10;;
21170;SDS011;10743;52.160;20.910;2023-07-24T11:08:56;74.65;;;50.30;;
21170;SDS011;10743;52.160;20.910;2023-07-24T11:11:29;69.05;;;49.00;;
21170;SDS011;10743;52.160;20.910;2023-07-24T11:13:58;76.43;;;50.35;;
21170;SDS011;10743;52.160;20.910;2023-07-24T11:16:26;67.03;;;49.03;;
21170;SDS011;10743;52.160;20.910;2023-07-24T11:18:53;66.57;;;48.88;;
21170;SDS011;10743;52.160;20.910;2023-07-24T11:21:24;55.08;;;44.38;;
21170;SDS011;10743;52.160;20.910;2023-07-24T11:23:52;47.40;;;41.00;;
21170;SDS011;10743;52.160;20.910;2023-07-24T11:26:22;47.72;;;41.70;;
21170;SDS011;10743;52.160;20.910;2023-07-24T11:28:52;42.22;;;38.10;;
21170;SDS011;10743;52.160;20.910;2023-07-24T11:31:20;42.08;;;37.58;;
21170;SDS011;10743;52.160;20.910;2023-07-24T11:33:48;33.28;;;30.15;;
21170;SDS011;10743;52.160;20.910;2023-07-24T11:36:17;32.85;;;29.52;;
21170;SDS011;10743;52.160;20.910;2023-07-24T11:38:45;28.50;;;25.75;;
21170;SDS011;10743;52.160;20.910;2023-07-24T11:41:13;33.33;;;25.02;;
21170;SDS011;10743;52.160;20.910;2023-07-24T11:43:45;29.33;;;26.23;;
21170;SDS011;10743;52.160;20.910;2023-07-24T11:48:53;18.40;;;16.35;;
21170;SDS011;10743;52.160;20.910;2023-07-24T11:51:27;14.98;;;10.65;;
21170;SDS011;10743;52.160;20.910;2023-07-24T11:54:06;16.63;;;8.88;;
21170;SDS011;10743;52.160;20.910;2023-07-24T11:56:34;12.82;;;6.85;;
21170;SDS011;10743;52.160;20.910;2023-07-24T12:01:41;10.63;;;5.20;;
21170;SDS011;10743;52.160;20.910;2023-07-24T12:04:15;11.88;;;4.28;;
21170;SDS011;10743;52.160;20.910;2023-07-24T12:06:43;12.55;;;5.25;;
21170;SDS011;10743;52.160;20.910;2023-07-24T12:09:10;25.33;;;18.40;;
21170;SDS011;10743;52.160;20.910;2023-07-24T12:11:44;16.45;;;6.53;;
21170;SDS011;10743;52.160;20.910;2023-07-24T12:14:13;10.55;;;5.72;;
21170;SDS011;10743;52.160;20.910;2023-07-24T12:16:41;9.85;;;4.38;;
21170;SDS011;10743;52.160;20.910;2023-07-24T12:19:09;21.60;;;5.60;;
21170;SDS011;10743;52.160;20.910;2023-07-24T12:21:36;13.07;;;4.88;;
21170;SDS011;10743;52.160;20.910;2023-07-24T12:24:03;12.75;;;5.60;;
21170;SDS011;10743;52.160;20.910;2023-07-24T12:26:30;12.25;;;4.68;;
21170;SDS011;10743;52.160;20.910;2023-07-24T12:28:57;31.40;;;19.95;;
21170;SDS011;10743;52.160;20.910;2023-07-24T12:31:26;33.63;;;24.38;;
21170;SDS011;10743;52.160;20.910;2023-07-24T12:33:55;19.45;;;5.13;;
21170;SDS011;10743;52.160;20.910;2023-07-24T12:36:22;12.35;;;5.00;;
21170;SDS011;10743;52.160;20.910;2023-07-24T12:38:50;16.27;;;4.82;;
21170;SDS011;10743;52.160;20.910;2023-07-24T12:41:17;10.70;;;4.28;;
21170;SDS011;10743;52.160;20.910;2023-07-24T12:43:44;11.73;;;4.07;;
21170;SDS011;10743;52.160;20.910;2023-07-24T12:46:11;9.52;;;4.18;;
21170;SDS011;10743;52.160;20.910;2023-07-24T12:48:38;16.65;;;5.28;;
21170;SDS011;10743;52.160;20.910;2023-07-24T12:51:05;13.27;;;3.92;;
21170;SDS011;10743;52.160;20.910;2023-07-24T12:53:32;13.60;;;3.63;;
21170;SDS011;10743;52.160;20.910;2023-07-24T12:56:13;14.70;;;4.15;;
21170;SDS011;10743;52.160;20.910;2023-07-24T12:58:40;16.35;;;4.18;;
21170;SDS011;10743;52.160;20.910;2023-07-24T13:01:07;11.68;;;3.78;;
21170;SDS011;10743;52.160;20.910;2023-07-24T13:03:34;9.35;;;3.40;;
21170;SDS011;10743;52.160;20.910;2023-07-24T13:06:02;13.60;;;3.95;;
21170;SDS011;10743;52.160;20.910;2023-07-24T13:08:29;18.48;;;8.00;;
21170;SDS011;10743;52.160;20.910;2023-07-24T13:10:56;13.32;;;7.13;;
21170;SDS011;10743;52.160;20.910;2023-07-24T13:13:23;9.35;;;3.55;;
21170;SDS011;10743;52.160;20.910;2023-07-24T13:15:50;11.05;;;3.83;;
21170;SDS011;10743;52.160;20.910;2023-07-24T13:18:17;7.20;;;3.25;;
21170;SDS011;10743;52.160;20.910;2023-07-24T13:20:54;6.80;;;3.13;;
21170;SDS011;10743;52.160;20.910;2023-07-24T13:23:25;14.07;;;4.00;;
21170;SDS011;10743;52.160;20.910;2023-07-24T13:25:52;12.50;;;4.13;;
21170;SDS011;10743;52.160;20.910;2023-07-24T13:28:19;11.15;;;4.18;;
21170;SDS011;10743;52.160;20.910;2023-07-24T13:30:46;8.45;;;3.53;;
21170;SDS011;10743;52.160;20.910;2023-07-24T13:33:14;15.55;;;4.18;;
21170;SDS011;10743;52.160;20.910;2023-07-24T13:35:42;9.40;;;3.50;;
21170;SDS011;10743;52.160;20.910;2023-07-24T13:38:09;15.90;;;4.20;;
21170;SDS011;10743;52.160;20.910;2023-07-24T13:40:36;13.90;;;4.60;;
21170;SDS011;10743;52.160;20.910;2023-07-24T13:43:03;13.48;;;4.15;;
21170;SDS011;10743;52.160;20.910;2023-07-24T13:45:31;13.73;;;4.50;;
21170;SDS011;10743;52.160;20.910;2023-07-24T13:47:58;12.27;;;4.03;;
21170;SDS011;10743;52.160;20.910;2023-07-24T13:50:25;16.58;;;4.38;;
21170;SDS011;10743;52.160;20.910;2023-07-24T13:52:52;12.57;;;4.07;;
21170;SDS011;10743;52.160;20.910;2023-07-24T13:55:19;13.45;;;4.28;;
21170;SDS011;10743;52.160;20.910;2023-07-24T13:57:46;18.77;;;10.93;;
21170;SDS011;10743;52.160;20.910;2023-07-24T14:00:14;20.67;;;11.55;;
21170;SDS011;10743;52.160;20.910;2023-07-24T14:02:41;13.15;;;4.05;;
21170;SDS011;10743;52.160;20.910;2023-07-24T14:05:08;14.70;;;4.25;;
21170;SDS011;10743;52.160;20.910;2023-07-24T14:07:36;12.95;;;3.90;;
21170;SDS011;10743;52.160;20.910;2023-07-24T14:10:03;11.63;;;4.25;;
21170;SDS011;10743;52.160;20.910;2023-07-24T14:12:30;10.10;;;3.53;;
21170;SDS011;10743;52.160;20.910;2023-07-24T14:14:57;8.40;;;3.17;;
21170;SDS011;10743;52.160;20.910;2023-07-24T14:17:24;10.35;;;3.95;;